KMTN/MTN METAR and TAF weather

Enter ICAO airport designator
Station Type Date Time Source
KMTN METAR 2022/12/08 11:54 UTC NOAA

KMTN 081154Z 28003KT 10SM SCT043 07/07 A3028


Station Type Date Time Source
KMTN Decoded METAR 2022/12/08 11:54 UTC NOAA

Baltimore / Martin, MD, United States (KMTN) 39-20N 076-25W
Dec 08, 2022 - 06:54 AM EST / 2022.12.08 1154 UTC
Wind: from the W (280 degrees) at 3 MPH (3 KT):0
Visibility: 10 mile(s):0
Sky conditions: partly cloudy
Temperature: 44 F (7 C)
Dew Point: 44 F (7 C)
Relative Humidity: 100%
Pressure (altimeter): 30.28 in. Hg (1025 hPa)
ob: KMTN 081154Z 28003KT 10SM SCT043 07/07 A3028
cycle: 12

Station Type Date Time Source
KMTN TAF 2022/12/08 12:42 UTC NOAA

TAF KMTN 081141Z 0812/0912 30003KT P6SM SCT035 BKN040
FM081500 33007KT P6SM BKN050
FM082100 35008G14KT P6SM BKN100
FM090400 32004KT P6SM OVC250

Example: see airport list